sensor_id;sensor_type;location;lat;lon;timestamp;P1;durP1;ratioP1;P2;durP2;ratioP2
38865;SDS011;62686;48.984;8.394;2024-02-26T00:00:14;2.53;;;1.67;;
38865;SDS011;62686;48.984;8.394;2024-02-26T00:02:42;2.40;;;1.80;;
38865;SDS011;62686;48.984;8.394;2024-02-26T00:05:11;3.22;;;1.67;;
38865;SDS011;62686;48.984;8.394;2024-02-26T00:07:39;2.20;;;1.77;;
38865;SDS011;62686;48.984;8.394;2024-02-26T00:10:09;1.95;;;1.75;;
38865;SDS011;62686;48.984;8.394;2024-02-26T00:12:37;2.30;;;1.58;;
38865;SDS011;62686;48.984;8.394;2024-02-26T00:15:06;2.37;;;1.60;;
38865;SDS011;62686;48.984;8.394;2024-02-26T00:17:38;1.38;;;1.27;;
38865;SDS011;62686;48.984;8.394;2024-02-26T00:20:07;2.47;;;1.58;;
38865;SDS011;62686;48.984;8.394;2024-02-26T00:22:37;3.28;;;1.67;;
38865;SDS011;62686;48.984;8.394;2024-02-26T00:25:06;1.83;;;1.33;;
38865;SDS011;62686;48.984;8.394;2024-02-26T00:27:35;3.00;;;1.60;;
38865;SDS011;62686;48.984;8.394;2024-02-26T00:30:03;2.42;;;2.05;;
38865;SDS011;62686;48.984;8.394;2024-02-26T00:32:33;2.65;;;1.90;;
38865;SDS011;62686;48.984;8.394;2024-02-26T00:35:03;2.45;;;1.85;;
38865;SDS011;62686;48.984;8.394;2024-02-26T00:37:33;2.58;;;1.80;;
38865;SDS011;62686;48.984;8.394;2024-02-26T00:40:01;2.00;;;1.50;;
38865;SDS011;62686;48.984;8.394;2024-02-26T00:42:30;2.60;;;1.88;;
38865;SDS011;62686;48.984;8.394;2024-02-26T00:44:59;1.73;;;1.60;;
38865;SDS011;62686;48.984;8.394;2024-02-26T00:47:27;3.10;;;1.70;;
38865;SDS011;62686;48.984;8.394;2024-02-26T00:49:58;1.58;;;1.48;;
38865;SDS011;62686;48.984;8.394;2024-02-26T00:55:10;1.92;;;1.70;;
38865;SDS011;62686;48.984;8.394;2024-02-26T00:57:39;2.00;;;1.42;;
38865;SDS011;62686;48.984;8.394;2024-02-26T01:00:08;1.65;;;1.35;;
38865;SDS011;62686;48.984;8.394;2024-02-26T01:13:19;1.80;;;1.50;;
38865;SDS011;62686;48.984;8.394;2024-02-26T01:15:47;1.58;;;1.20;;
38865;SDS011;62686;48.984;8.394;2024-02-26T01:18:15;1.80;;;1.70;;
38865;SDS011;62686;48.984;8.394;2024-02-26T01:20:44;2.17;;;1.30;;
38865;SDS011;62686;48.984;8.394;2024-02-26T01:23:12;2.40;;;1.70;;
38865;SDS011;62686;48.984;8.394;2024-02-26T01:25:41;1.95;;;1.75;;
38865;SDS011;62686;48.984;8.394;2024-02-26T01:28:09;1.80;;;1.45;;
38865;SDS011;62686;48.984;8.394;2024-02-26T01:30:41;2.95;;;1.45;;
38865;SDS011;62686;48.984;8.394;2024-02-26T01:33:10;2.87;;;1.50;;
38865;SDS011;62686;48.984;8.394;2024-02-26T01:35:38;2.45;;;1.67;;
38865;SDS011;62686;48.984;8.394;2024-02-26T01:38:06;3.33;;;1.65;;
38865;SDS011;62686;48.984;8.394;2024-02-26T01:40:35;2.35;;;1.67;;
38865;SDS011;62686;48.984;8.394;2024-02-26T01:43:03;1.98;;;1.67;;
38865;SDS011;62686;48.984;8.394;2024-02-26T01:45:31;4.57;;;1.50;;
38865;SDS011;62686;48.984;8.394;2024-02-26T01:48:01;1.38;;;1.20;;
38865;SDS011;62686;48.984;8.394;2024-02-26T01:50:30;2.72;;;1.60;;
38865;SDS011;62686;48.984;8.394;2024-02-26T01:53:00;1.77;;;1.30;;
38865;SDS011;62686;48.984;8.394;2024-02-26T01:55:29;1.75;;;1.30;;
38865;SDS011;62686;48.984;8.394;2024-02-26T01:57:58;0.80;;;0.73;;
38865;SDS011;62686;48.984;8.394;2024-02-26T02:00:27;1.42;;;1.20;;
38865;SDS011;62686;48.984;8.394;2024-02-26T02:02:55;1.13;;;1.02;;
38865;SDS011;62686;48.984;8.394;2024-02-26T02:05:25;1.13;;;1.02;;
38865;SDS011;62686;48.984;8.394;2024-02-26T02:07:54;1.20;;;1.10;;
38865;SDS011;62686;48.984;8.394;2024-02-26T02:10:22;0.93;;;0.90;;
38865;SDS011;62686;48.984;8.394;2024-02-26T02:12:53;1.40;;;1.30;;
38865;SDS011;62686;48.984;8.394;2024-02-26T02:15:21;2.08;;;1.48;;
38865;SDS011;62686;48.984;8.394;2024-02-26T02:17:50;1.20;;;0.80;;
38865;SDS011;62686;48.984;8.394;2024-02-26T02:20:18;1.33;;;1.00;;
38865;SDS011;62686;48.984;8.394;2024-02-26T02:22:53;1.20;;;1.10;;
38865;SDS011;62686;48.984;8.394;2024-02-26T02:25:22;1.58;;;1.05;;
38865;SDS011;62686;48.984;8.394;2024-02-26T02:27:50;1.92;;;1.30;;
38865;SDS011;62686;48.984;8.394;2024-02-26T02:30:19;1.40;;;1.08;;
38865;SDS011;62686;48.984;8.394;2024-02-26T02:32:50;1.00;;;0.90;;
38865;SDS011;62686;48.984;8.394;2024-02-26T02:35:19;1.20;;;1.10;;
38865;SDS011;62686;48.984;8.394;2024-02-26T02:37:49;1.35;;;0.95;;
38865;SDS011;62686;48.984;8.394;2024-02-26T02:40:19;0.80;;;0.80;;
38865;SDS011;62686;48.984;8.394;2024-02-26T02:42:48;3.17;;;1.25;;
38865;SDS011;62686;48.984;8.394;2024-02-26T02:45:16;1.23;;;1.13;;
38865;SDS011;62686;48.984;8.394;2024-02-26T02:47:44;2.07;;;1.23;;
38865;SDS011;62686;48.984;8.394;2024-02-26T02:50:13;1.35;;;1.17;;
38865;SDS011;62686;48.984;8.394;2024-02-26T02:52:41;1.63;;;1.40;;
38865;SDS011;62686;48.984;8.394;2024-02-26T02:55:11;1.65;;;1.40;;
38865;SDS011;62686;48.984;8.394;2024-02-26T02:57:40;1.70;;;1.20;;
38865;SDS011;62686;48.984;8.394;2024-02-26T03:00:09;1.90;;;1.30;;
38865;SDS011;62686;48.984;8.394;2024-02-26T03:02:39;1.38;;;1.10;;
38865;SDS011;62686;48.984;8.394;2024-02-26T03:05:07;1.60;;;1.02;;
38865;SDS011;62686;48.984;8.394;2024-02-26T03:07:36;2.28;;;1.08;;
38865;SDS011;62686;48.984;8.394;2024-02-26T03:10:05;1.48;;;1.10;;
38865;SDS011;62686;48.984;8.394;2024-02-26T03:12:36;1.20;;;1.10;;
38865;SDS011;62686;48.984;8.394;2024-02-26T03:15:05;1.20;;;0.88;;
38865;SDS011;62686;48.984;8.394;2024-02-26T03:17:34;1.55;;;1.17;;
38865;SDS011;62686;48.984;8.394;2024-02-26T03:20:02;1.60;;;1.17;;
38865;SDS011;62686;48.984;8.394;2024-02-26T03:22:34;1.60;;;1.30;;
38865;SDS011;62686;48.984;8.394;2024-02-26T03:25:02;1.53;;;0.97;;
38865;SDS011;62686;48.984;8.394;2024-02-26T03:27:32;1.98;;;1.08;;
38865;SDS011;62686;48.984;8.394;2024-02-26T03:30:02;2.33;;;1.13;;
38865;SDS011;62686;48.984;8.394;2024-02-26T03:32:34;1.60;;;1.10;;
38865;SDS011;62686;48.984;8.394;2024-02-26T03:35:03;1.20;;;1.10;;
38865;SDS011;62686;48.984;8.394;2024-02-26T03:37:33;2.07;;;1.10;;
38865;SDS011;62686;48.984;8.394;2024-02-26T03:40:02;1.13;;;0.90;;
38865;SDS011;62686;48.984;8.394;2024-02-26T03:42:32;1.40;;;1.17;;
38865;SDS011;62686;48.984;8.394;2024-02-26T03:45:02;1.27;;;0.82;;
38865;SDS011;62686;48.984;8.394;2024-02-26T03:47:31;2.05;;;1.30;;
38865;SDS011;62686;48.984;8.394;2024-02-26T03:49:59;1.93;;;1.07;;
38865;SDS011;62686;48.984;8.394;2024-02-26T03:52:28;1.48;;;1.00;;
38865;SDS011;62686;48.984;8.394;2024-02-26T03:54:56;1.63;;;1.00;;
38865;SDS011;62686;48.984;8.394;2024-02-26T03:57:25;1.27;;;1.10;;
38865;SDS011;62686;48.984;8.394;2024-02-26T03:59:53;1.10;;;0.82;;
38865;SDS011;62686;48.984;8.394;2024-02-26T04:02:23;0.60;;;0.60;;
38865;SDS011;62686;48.984;8.394;2024-02-26T04:04:53;0.90;;;0.90;;
38865;SDS011;62686;48.984;8.394;2024-02-26T04:07:21;1.30;;;1.20;;
38865;SDS011;62686;48.984;8.394;2024-02-26T04:09:50;1.00;;;0.90;;
38865;SDS011;62686;48.984;8.394;2024-02-26T04:12:19;1.15;;;1.02;;
38865;SDS011;62686;48.984;8.394;2024-02-26T04:14:47;1.30;;;1.00;;
38865;SDS011;62686;48.984;8.394;2024-02-26T04:17:15;1.98;;;0.90;;
38865;SDS011;62686;48.984;8.394;2024-02-26T04:19:45;1.40;;;0.90;;
38865;SDS011;62686;48.984;8.394;2024-02-26T04:22:13;0.82;;;0.80;;
38865;SDS011;62686;48.984;8.394;2024-02-26T04:24:42;1.33;;;0.70;;
38865;SDS011;62686;48.984;8.394;2024-02-26T04:27:10;0.83;;;0.80;;
38865;SDS011;62686;48.984;8.394;2024-02-26T04:29:39;2.63;;;0.88;;
38865;SDS011;62686;48.984;8.394;2024-02-26T04:32:07;1.15;;;1.05;;
38865;SDS011;62686;48.984;8.394;2024-02-26T04:34:36;2.20;;;0.85;;
38865;SDS011;62686;48.984;8.394;2024-02-26T04:37:05;0.80;;;0.80;;
38865;SDS011;62686;48.984;8.394;2024-02-26T04:39:34;1.07;;;0.97;;
38865;SDS011;62686;48.984;8.394;2024-02-26T04:42:02;1.10;;;0.60;;
38865;SDS011;62686;48.984;8.394;2024-02-26T04:44:31;3.33;;;1.20;;
38865;SDS011;62686;48.984;8.394;2024-02-26T04:47:00;1.42;;;0.90;;
38865;SDS011;62686;48.984;8.394;2024-02-26T04:49:29;1.05;;;0.90;;
38865;SDS011;62686;48.984;8.394;2024-02-26T04:51:57;1.23;;;0.77;;
38865;SDS011;62686;48.984;8.394;2024-02-26T04:54:27;2.78;;;0.93;;
38865;SDS011;62686;48.984;8.394;2024-02-26T04:56:55;1.98;;;1.10;;
38865;SDS011;62686;48.984;8.394;2024-02-26T04:59:23;1.90;;;1.13;;
38865;SDS011;62686;48.984;8.394;2024-02-26T05:01:52;0.80;;;0.77;;
38865;SDS011;62686;48.984;8.394;2024-02-26T05:04:20;1.07;;;0.87;;
38865;SDS011;62686;48.984;8.394;2024-02-26T05:06:49;1.40;;;0.80;;
38865;SDS011;62686;48.984;8.394;2024-02-26T05:09:17;1.25;;;0.68;;
38865;SDS011;62686;48.984;8.394;2024-02-26T05:11:47;1.15;;;0.68;;
38865;SDS011;62686;48.984;8.394;2024-02-26T05:14:15;1.20;;;1.10;;
38865;SDS011;62686;48.984;8.394;2024-02-26T05:16:44;1.20;;;1.10;;
38865;SDS011;62686;48.984;8.394;2024-02-26T05:19:13;1.17;;;1.00;;
38865;SDS011;62686;48.984;8.394;2024-02-26T05:21:41;1.30;;;1.13;;
38865;SDS011;62686;48.984;8.394;2024-02-26T05:24:10;1.65;;;1.10;;
38865;SDS011;62686;48.984;8.394;2024-02-26T05:26:39;1.42;;;1.20;;
38865;SDS011;62686;48.984;8.394;2024-02-26T05:29:08;1.67;;;1.30;;
38865;SDS011;62686;48.984;8.394;2024-02-26T05:31:37;1.08;;;0.93;;
38865;SDS011;62686;48.984;8.394;2024-02-26T05:34:05;1.27;;;1.17;;
38865;SDS011;62686;48.984;8.394;2024-02-26T05:36:34;2.38;;;1.60;;
38865;SDS011;62686;48.984;8.394;2024-02-26T05:39:02;1.48;;;1.38;;
38865;SDS011;62686;48.984;8.394;2024-02-26T05:41:31;1.80;;;1.30;;
38865;SDS011;62686;48.984;8.394;2024-02-26T05:43:59;2.30;;;1.70;;
38865;SDS011;62686;48.984;8.394;2024-02-26T05:46:29;1.77;;;1.50;;
38865;SDS011;62686;48.984;8.394;2024-02-26T05:48:57;1.50;;;1.17;;
38865;SDS011;62686;48.984;8.394;2024-02-26T05:51:26;1.52;;;1.17;;
38865;SDS011;62686;48.984;8.394;2024-02-26T05:53:54;1.80;;;1.13;;
38865;SDS011;62686;48.984;8.394;2024-02-26T05:56:24;1.48;;;1.17;;
38865;SDS011;62686;48.984;8.394;2024-02-26T05:58:52;0.90;;;0.80;;
38865;SDS011;62686;48.984;8.394;2024-02-26T06:01:23;1.13;;;0.95;;
38865;SDS011;62686;48.984;8.394;2024-02-26T06:03:53;1.40;;;1.30;;
38865;SDS011;62686;48.984;8.394;2024-02-26T06:06:22;1.30;;;1.07;;
38865;SDS011;62686;48.984;8.394;2024-02-26T06:08:50;1.40;;;1.00;;
38865;SDS011;62686;48.984;8.394;2024-02-26T06:11:19;1.80;;;1.25;;
38865;SDS011;62686;48.984;8.394;2024-02-26T06:13:49;1.48;;;1.35;;
38865;SDS011;62686;48.984;8.394;2024-02-26T06:16:17;2.50;;;1.13;;
38865;SDS011;62686;48.984;8.394;2024-02-26T06:18:46;1.20;;;1.10;;
38865;SDS011;62686;48.984;8.394;2024-02-26T06:21:15;1.38;;;1.00;;
38865;SDS011;62686;48.984;8.394;2024-02-26T06:23:44;1.40;;;1.30;;
38865;SDS011;62686;48.984;8.394;2024-02-26T06:26:12;0.95;;;0.82;;
38865;SDS011;62686;48.984;8.394;2024-02-26T06:28:41;1.02;;;0.93;;
38865;SDS011;62686;48.984;8.394;2024-02-26T06:31:09;1.40;;;1.10;;
38865;SDS011;62686;48.984;8.394;2024-02-26T06:33:38;1.40;;;1.00;;
38865;SDS011;62686;48.984;8.394;2024-02-26T06:36:06;1.25;;;1.15;;
38865;SDS011;62686;48.984;8.394;2024-02-26T06:38:36;1.55;;;1.20;;
38865;SDS011;62686;48.984;8.394;2024-02-26T06:41:04;1.02;;;0.85;;
38865;SDS011;62686;48.984;8.394;2024-02-26T06:43:33;1.27;;;1.00;;
38865;SDS011;62686;48.984;8.394;2024-02-26T06:46:01;1.60;;;1.00;;
38865;SDS011;62686;48.984;8.394;2024-02-26T06:48:30;1.38;;;1.20;;
38865;SDS011;62686;48.984;8.394;2024-02-26T06:50:59;1.42;;;1.15;;
38865;SDS011;62686;48.984;8.394;2024-02-26T06:53:27;1.88;;;1.42;;
38865;SDS011;62686;48.984;8.394;2024-02-26T06:55:57;1.40;;;0.83;;
38865;SDS011;62686;48.984;8.394;2024-02-26T06:58:25;1.70;;;1.10;;
38865;SDS011;62686;48.984;8.394;2024-02-26T07:00:54;1.65;;;1.27;;
38865;SDS011;62686;48.984;8.394;2024-02-26T07:03:22;1.55;;;1.33;;
38865;SDS011;62686;48.984;8.394;2024-02-26T07:05:52;2.10;;;1.60;;
38865;SDS011;62686;48.984;8.394;2024-02-26T07:08:20;1.87;;;1.40;;
38865;SDS011;62686;48.984;8.394;2024-02-26T07:10:49;2.65;;;1.50;;
38865;SDS011;62686;48.984;8.394;2024-02-26T07:13:18;2.35;;;1.50;;
38865;SDS011;62686;48.984;8.394;2024-02-26T07:15:47;1.58;;;1.20;;
38865;SDS011;62686;48.984;8.394;2024-02-26T07:18:15;1.52;;;1.17;;
38865;SDS011;62686;48.984;8.394;2024-02-26T07:20:44;1.93;;;1.30;;
38865;SDS011;62686;48.984;8.394;2024-02-26T07:23:12;1.75;;;1.08;;
38865;SDS011;62686;48.984;8.394;2024-02-26T07:25:41;1.98;;;1.50;;
38865;SDS011;62686;48.984;8.394;2024-02-26T07:28:11;1.38;;;0.95;;
38865;SDS011;62686;48.984;8.394;2024-02-26T07:30:41;1.92;;;1.10;;
38865;SDS011;62686;48.984;8.394;2024-02-26T07:33:09;1.43;;;1.10;;
38865;SDS011;62686;48.984;8.394;2024-02-26T07:35:38;1.75;;;1.05;;
38865;SDS011;62686;48.984;8.394;2024-02-26T07:38:06;2.53;;;1.40;;
38865;SDS011;62686;48.984;8.394;2024-02-26T07:40:37;1.42;;;1.00;;
38865;SDS011;62686;48.984;8.394;2024-02-26T07:43:10;1.90;;;1.27;;
38865;SDS011;62686;48.984;8.394;2024-02-26T07:45:38;1.40;;;1.30;;
38865;SDS011;62686;48.984;8.394;2024-02-26T07:48:08;2.33;;;1.30;;
38865;SDS011;62686;48.984;8.394;2024-02-26T07:50:37;1.92;;;1.48;;
38865;SDS011;62686;48.984;8.394;2024-02-26T07:53:06;2.20;;;1.80;;
38865;SDS011;62686;48.984;8.394;2024-02-26T07:55:35;4.15;;;2.72;;
38865;SDS011;62686;48.984;8.394;2024-02-26T07:58:03;3.80;;;1.97;;
38865;SDS011;62686;48.984;8.394;2024-02-26T08:00:33;2.63;;;1.50;;
38865;SDS011;62686;48.984;8.394;2024-02-26T08:03:01;2.10;;;1.45;;
38865;SDS011;62686;48.984;8.394;2024-02-26T08:05:32;1.83;;;1.45;;
38865;SDS011;62686;48.984;8.394;2024-02-26T08:08:00;1.95;;;1.30;;
38865;SDS011;62686;48.984;8.394;2024-02-26T08:10:28;1.83;;;1.10;;
38865;SDS011;62686;48.984;8.394;2024-02-26T08:12:58;1.42;;;1.33;;
38865;SDS011;62686;48.984;8.394;2024-02-26T08:15:31;2.47;;;1.70;;
38865;SDS011;62686;48.984;8.394;2024-02-26T08:18:00;2.55;;;1.95;;
38865;SDS011;62686;48.984;8.394;2024-02-26T08:20:30;2.78;;;1.05;;
38865;SDS011;62686;48.984;8.394;2024-02-26T08:23:00;1.67;;;1.37;;
38865;SDS011;62686;48.984;8.394;2024-02-26T08:25:29;2.35;;;1.80;;
38865;SDS011;62686;48.984;8.394;2024-02-26T08:27:57;5.03;;;2.58;;
38865;SDS011;62686;48.984;8.394;2024-02-26T08:30:26;2.60;;;1.30;;
38865;SDS011;62686;48.984;8.394;2024-02-26T08:32:54;2.63;;;1.58;;
38865;SDS011;62686;48.984;8.394;2024-02-26T08:35:23;2.13;;;1.40;;
38865;SDS011;62686;48.984;8.394;2024-02-26T08:37:53;2.08;;;1.55;;
38865;SDS011;62686;48.984;8.394;2024-02-26T08:40:21;2.75;;;1.83;;
38865;SDS011;62686;48.984;8.394;2024-02-26T08:42:50;1.90;;;1.50;;
38865;SDS011;62686;48.984;8.394;2024-02-26T08:45:18;2.05;;;1.52;;
38865;SDS011;62686;48.984;8.394;2024-02-26T08:47:46;2.30;;;1.60;;
38865;SDS011;62686;48.984;8.394;2024-02-26T08:50:15;1.75;;;1.33;;
38865;SDS011;62686;48.984;8.394;2024-02-26T08:52:44;1.95;;;1.75;;
38865;SDS011;62686;48.984;8.394;2024-02-26T08:55:16;1.55;;;1.23;;
38865;SDS011;62686;48.984;8.394;2024-02-26T08:57:45;1.52;;;1.13;;
38865;SDS011;62686;48.984;8.394;2024-02-26T09:00:15;1.17;;;1.07;;
38865;SDS011;62686;48.984;8.394;2024-02-26T09:02:46;1.20;;;1.10;;
38865;SDS011;62686;48.984;8.394;2024-02-26T09:05:15;1.42;;;1.33;;
38865;SDS011;62686;48.984;8.394;2024-02-26T09:07:44;1.85;;;1.27;;
38865;SDS011;62686;48.984;8.394;2024-02-26T09:10:13;1.60;;;1.40;;
38865;SDS011;62686;48.984;8.394;2024-02-26T09:12:43;1.73;;;1.20;;
38865;SDS011;62686;48.984;8.394;2024-02-26T09:15:11;1.77;;;1.23;;
38865;SDS011;62686;48.984;8.394;2024-02-26T09:17:40;1.60;;;1.30;;
38865;SDS011;62686;48.984;8.394;2024-02-26T09:20:09;2.00;;;1.65;;
38865;SDS011;62686;48.984;8.394;2024-02-26T09:22:40;2.95;;;1.58;;
38865;SDS011;62686;48.984;8.394;2024-02-26T09:25:09;1.50;;;1.13;;
38865;SDS011;62686;48.984;8.394;2024-02-26T09:27:39;1.40;;;1.27;;
38865;SDS011;62686;48.984;8.394;2024-02-26T09:30:12;1.73;;;1.38;;
38865;SDS011;62686;48.984;8.394;2024-02-26T09:32:41;3.47;;;1.63;;
38865;SDS011;62686;48.984;8.394;2024-02-26T09:35:16;2.53;;;1.27;;
38865;SDS011;62686;48.984;8.394;2024-02-26T09:37:44;1.70;;;1.43;;
38865;SDS011;62686;48.984;8.394;2024-02-26T09:40:13;2.58;;;1.55;;
38865;SDS011;62686;48.984;8.394;2024-02-26T10:37:24;1.88;;;1.38;;
38865;SDS011;62686;48.984;8.394;2024-02-26T12:46:11;1.63;;;1.30;;
38865;SDS011;62686;48.984;8.394;2024-02-26T13:23:51;1.33;;;1.13;;
38865;SDS011;62686;48.984;8.394;2024-02-26T14:55:07;1.90;;;1.23;;
38865;SDS011;62686;48.984;8.394;2024-02-26T15:20:02;1.10;;;0.95;;
38865;SDS011;62686;48.984;8.394;2024-02-26T15:22:33;1.40;;;1.30;;
38865;SDS011;62686;48.984;8.394;2024-02-26T15:25:02;1.83;;;1.20;;
38865;SDS011;62686;48.984;8.394;2024-02-26T15:27:31;1.40;;;1.30;;
38865;SDS011;62686;48.984;8.394;2024-02-26T15:30:00;1.35;;;1.25;;
38865;SDS011;62686;48.984;8.394;2024-02-26T15:32:29;1.27;;;1.17;;
38865;SDS011;62686;48.984;8.394;2024-02-26T15:34:57;1.63;;;1.50;;
38865;SDS011;62686;48.984;8.394;2024-02-26T15:37:27;1.50;;;1.40;;
38865;SDS011;62686;48.984;8.394;2024-02-26T15:39:56;1.30;;;1.20;;
38865;SDS011;62686;48.984;8.394;2024-02-26T15:42:24;1.52;;;1.27;;
38865;SDS011;62686;48.984;8.394;2024-02-26T15:44:52;1.70;;;1.60;;
38865;SDS011;62686;48.984;8.394;2024-02-26T15:47:21;7.25;;;1.42;;
38865;SDS011;62686;48.984;8.394;2024-02-26T15:49:50;1.40;;;1.30;;
38865;SDS011;62686;48.984;8.394;2024-02-26T15:52:18;2.25;;;1.30;;
38865;SDS011;62686;48.984;8.394;2024-02-26T15:54:48;2.13;;;1.30;;
38865;SDS011;62686;48.984;8.394;2024-02-26T15:57:16;3.88;;;1.23;;
38865;SDS011;62686;48.984;8.394;2024-02-26T15:59:45;1.80;;;1.42;;
38865;SDS011;62686;48.984;8.394;2024-02-26T16:02:14;1.43;;;1.33;;
38865;SDS011;62686;48.984;8.394;2024-02-26T16:04:43;1.00;;;0.88;;
38865;SDS011;62686;48.984;8.394;2024-02-26T16:07:14;1.50;;;1.30;;
38865;SDS011;62686;48.984;8.394;2024-02-26T16:09:52;1.80;;;1.10;;
38865;SDS011;62686;48.984;8.394;2024-02-26T16:12:23;1.30;;;1.20;;
38865;SDS011;62686;48.984;8.394;2024-02-26T16:15:03;1.67;;;1.53;;
38865;SDS011;62686;48.984;8.394;2024-02-26T16:17:36;1.25;;;1.10;;
38865;SDS011;62686;48.984;8.394;2024-02-26T16:20:13;9.63;;;1.15;;
38865;SDS011;62686;48.984;8.394;2024-02-26T16:22:44;1.23;;;1.13;;
38865;SDS011;62686;48.984;8.394;2024-02-26T16:25:14;2.00;;;1.38;;
38865;SDS011;62686;48.984;8.394;2024-02-26T16:27:44;1.40;;;1.20;;
38865;SDS011;62686;48.984;8.394;2024-02-26T16:30:12;1.67;;;1.10;;
38865;SDS011;62686;48.984;8.394;2024-02-26T16:32:41;1.98;;;1.40;;
38865;SDS011;62686;48.984;8.394;2024-02-26T16:35:10;2.40;;;1.30;;
38865;SDS011;62686;48.984;8.394;2024-02-26T16:37:40;2.38;;;1.45;;
38865;SDS011;62686;48.984;8.394;2024-02-26T16:40:08;1.53;;;1.07;;
38865;SDS011;62686;48.984;8.394;2024-02-26T16:42:43;2.13;;;1.48;;
38865;SDS011;62686;48.984;8.394;2024-02-26T16:45:11;2.47;;;1.70;;
38865;SDS011;62686;48.984;8.394;2024-02-26T16:47:40;1.20;;;1.10;;
38865;SDS011;62686;48.984;8.394;2024-02-26T16:50:10;1.80;;;1.60;;
38865;SDS011;62686;48.984;8.394;2024-02-26T16:52:39;3.37;;;1.30;;
38865;SDS011;62686;48.984;8.394;2024-02-26T16:55:07;1.85;;;1.20;;
38865;SDS011;62686;48.984;8.394;2024-02-26T16:57:36;2.80;;;1.75;;
38865;SDS011;62686;48.984;8.394;2024-02-26T17:00:07;1.90;;;1.42;;
38865;SDS011;62686;48.984;8.394;2024-02-26T17:02:38;2.20;;;1.40;;
38865;SDS011;62686;48.984;8.394;2024-02-26T17:05:07;2.33;;;1.30;;
38865;SDS011;62686;48.984;8.394;2024-02-26T17:07:36;2.45;;;1.40;;
38865;SDS011;62686;48.984;8.394;2024-02-26T17:10:07;4.97;;;1.65;;
38865;SDS011;62686;48.984;8.394;2024-02-26T17:12:36;1.65;;;1.55;;
38865;SDS011;62686;48.984;8.394;2024-02-26T17:15:06;2.70;;;1.50;;
38865;SDS011;62686;48.984;8.394;2024-02-26T17:17:35;1.60;;;1.13;;
38865;SDS011;62686;48.984;8.394;2024-02-26T17:20:04;2.60;;;1.80;;
38865;SDS011;62686;48.984;8.394;2024-02-26T17:22:34;3.03;;;1.83;;
38865;SDS011;62686;48.984;8.394;2024-02-26T17:25:03;2.00;;;1.33;;
38865;SDS011;62686;48.984;8.394;2024-02-26T17:27:32;2.75;;;1.90;;
38865;SDS011;62686;48.984;8.394;2024-02-26T17:30:01;3.20;;;1.40;;
38865;SDS011;62686;48.984;8.394;2024-02-26T17:32:31;2.03;;;1.33;;
38865;SDS011;62686;48.984;8.394;2024-02-26T17:35:00;2.22;;;1.77;;
38865;SDS011;62686;48.984;8.394;2024-02-26T17:37:30;2.10;;;1.70;;
38865;SDS011;62686;48.984;8.394;2024-02-26T17:39:58;2.97;;;1.33;;
38865;SDS011;62686;48.984;8.394;2024-02-26T17:42:28;3.13;;;2.00;;
38865;SDS011;62686;48.984;8.394;2024-02-26T17:44:56;3.08;;;2.08;;
38865;SDS011;62686;48.984;8.394;2024-02-26T17:47:25;2.45;;;2.00;;
38865;SDS011;62686;48.984;8.394;2024-02-26T17:49:55;2.97;;;1.75;;
38865;SDS011;62686;48.984;8.394;2024-02-26T17:52:23;2.10;;;1.77;;
38865;SDS011;62686;48.984;8.394;2024-02-26T17:54:51;3.00;;;1.70;;
38865;SDS011;62686;48.984;8.394;2024-02-26T17:57:20;2.88;;;1.75;;
38865;SDS011;62686;48.984;8.394;2024-02-26T17:59:48;2.28;;;2.08;;
38865;SDS011;62686;48.984;8.394;2024-02-26T18:02:17;4.45;;;2.35;;
38865;SDS011;62686;48.984;8.394;2024-02-26T18:04:47;4.13;;;1.77;;
38865;SDS011;62686;48.984;8.394;2024-02-26T18:07:16;4.27;;;1.77;;
38865;SDS011;62686;48.984;8.394;2024-02-26T18:09:45;5.30;;;2.08;;
38865;SDS011;62686;48.984;8.394;2024-02-26T18:12:13;3.38;;;2.13;;
38865;SDS011;62686;48.984;8.394;2024-02-26T18:14:42;4.60;;;2.42;;
38865;SDS011;62686;48.984;8.394;2024-02-26T18:17:10;3.97;;;2.85;;
38865;SDS011;62686;48.984;8.394;2024-02-26T18:19:39;3.93;;;2.20;;
38865;SDS011;62686;48.984;8.394;2024-02-26T18:22:07;3.28;;;2.10;;
38865;SDS011;62686;48.984;8.394;2024-02-26T18:24:37;4.13;;;2.80;;
38865;SDS011;62686;48.984;8.394;2024-02-26T18:27:06;4.57;;;2.40;;
38865;SDS011;62686;48.984;8.394;2024-02-26T18:29:34;4.15;;;2.70;;
38865;SDS011;62686;48.984;8.394;2024-02-26T18:32:03;3.30;;;2.10;;
38865;SDS011;62686;48.984;8.394;2024-02-26T18:34:32;3.80;;;2.45;;
38865;SDS011;62686;48.984;8.394;2024-02-26T18:37:02;4.28;;;2.55;;
38865;SDS011;62686;48.984;8.394;2024-02-26T18:39:32;4.40;;;2.72;;
38865;SDS011;62686;48.984;8.394;2024-02-26T18:42:02;4.13;;;3.13;;
38865;SDS011;62686;48.984;8.394;2024-02-26T18:44:33;4.27;;;2.40;;
38865;SDS011;62686;48.984;8.394;2024-02-26T18:47:01;4.93;;;2.78;;
38865;SDS011;62686;48.984;8.394;2024-02-26T18:49:31;5.20;;;3.00;;
38865;SDS011;62686;48.984;8.394;2024-02-26T18:52:02;6.55;;;2.50;;
38865;SDS011;62686;48.984;8.394;2024-02-26T18:54:31;4.15;;;2.83;;
38865;SDS011;62686;48.984;8.394;2024-02-26T18:57:04;5.17;;;3.03;;
38865;SDS011;62686;48.984;8.394;2024-02-26T18:59:33;4.90;;;2.92;;
38865;SDS011;62686;48.984;8.394;2024-02-26T19:02:01;4.78;;;3.15;;
38865;SDS011;62686;48.984;8.394;2024-02-26T19:04:31;4.60;;;2.95;;
38865;SDS011;62686;48.984;8.394;2024-02-26T19:06:59;6.13;;;4.10;;
38865;SDS011;62686;48.984;8.394;2024-02-26T19:09:29;4.80;;;3.30;;
38865;SDS011;62686;48.984;8.394;2024-02-26T19:11:57;9.77;;;3.72;;
38865;SDS011;62686;48.984;8.394;2024-02-26T19:14:27;7.85;;;3.88;;
38865;SDS011;62686;48.984;8.394;2024-02-26T19:16:58;5.82;;;3.47;;
38865;SDS011;62686;48.984;8.394;2024-02-26T19:19:27;6.18;;;4.30;;
38865;SDS011;62686;48.984;8.394;2024-02-26T19:21:56;6.07;;;3.93;;
38865;SDS011;62686;48.984;8.394;2024-02-26T19:24:25;7.97;;;4.15;;
38865;SDS011;62686;48.984;8.394;2024-02-26T19:26:53;7.07;;;4.05;;
38865;SDS011;62686;48.984;8.394;2024-02-26T19:29:22;6.03;;;4.53;;
38865;SDS011;62686;48.984;8.394;2024-02-26T19:31:53;8.45;;;4.97;;
38865;SDS011;62686;48.984;8.394;2024-02-26T19:34:21;7.07;;;4.07;;
38865;SDS011;62686;48.984;8.394;2024-02-26T19:36:50;7.38;;;4.00;;
38865;SDS011;62686;48.984;8.394;2024-02-26T19:39:18;9.02;;;4.55;;
38865;SDS011;62686;48.984;8.394;2024-02-26T19:41:47;8.02;;;4.20;;
38865;SDS011;62686;48.984;8.394;2024-02-26T19:44:15;8.25;;;4.45;;
38865;SDS011;62686;48.984;8.394;2024-02-26T19:46:44;11.37;;;4.17;;
38865;SDS011;62686;48.984;8.394;2024-02-26T19:49:14;6.07;;;4.10;;
38865;SDS011;62686;48.984;8.394;2024-02-26T19:54:24;6.82;;;4.35;;
38865;SDS011;62686;48.984;8.394;2024-02-26T19:56:53;7.63;;;4.75;;
38865;SDS011;62686;48.984;8.394;2024-02-26T19:59:21;9.73;;;4.90;;
38865;SDS011;62686;48.984;8.394;2024-02-26T20:01:49;8.57;;;4.63;;
38865;SDS011;62686;48.984;8.394;2024-02-26T20:04:19;9.48;;;4.90;;
38865;SDS011;62686;48.984;8.394;2024-02-26T20:06:48;8.90;;;4.72;;
38865;SDS011;62686;48.984;8.394;2024-02-26T20:11:52;7.43;;;5.07;;
38865;SDS011;62686;48.984;8.394;2024-02-26T20:14:21;7.97;;;4.82;;
38865;SDS011;62686;48.984;8.394;2024-02-26T20:16:51;10.95;;;5.70;;
38865;SDS011;62686;48.984;8.394;2024-02-26T20:19:20;8.85;;;5.03;;
38865;SDS011;62686;48.984;8.394;2024-02-26T20:21:49;7.03;;;4.45;;
38865;SDS011;62686;48.984;8.394;2024-02-26T20:24:19;9.13;;;4.60;;
38865;SDS011;62686;48.984;8.394;2024-02-26T20:26:47;8.10;;;4.78;;
38865;SDS011;62686;48.984;8.394;2024-02-26T20:29:16;8.90;;;4.80;;
38865;SDS011;62686;48.984;8.394;2024-02-26T20:31:44;6.70;;;4.50;;
38865;SDS011;62686;48.984;8.394;2024-02-26T20:34:14;7.40;;;4.88;;
38865;SDS011;62686;48.984;8.394;2024-02-26T20:36:44;7.67;;;4.80;;
38865;SDS011;62686;48.984;8.394;2024-02-26T20:39:12;8.32;;;4.97;;
38865;SDS011;62686;48.984;8.394;2024-02-26T20:41:40;7.90;;;4.68;;
38865;SDS011;62686;48.984;8.394;2024-02-26T20:44:09;6.88;;;4.10;;